Aviation Digital Data Service (ADDS)

Output produced by METARs form (0358 UTC 25 March 2017)
found at http://www.aviationweather.gov/adds/metars/
 
KMDT 250256Z 00000KT 10SM BKN250 11/04 A3014 RMK AO2 SLP207 T01110039 53007
KMDT 250156Z VRB06KT 10SM BKN250 13/04 A3013 RMK AO2 SLP204 T01330039
KMDT 250056Z 21007G15KT 10SM BKN250 13/04 A3012 RMK AO2 SLP200 T01330039
KMDT 242356Z 19007KT 140V220 10SM BKN250 13/04 A3012 RMK AO2 SLP201 T01330039 10144 20106 56005
KMDT 242256Z 21010G15KT 10SM OVC250 14/04 A3012 RMK AO2 SLP201 T01390044
KMDT 242156Z 23007KT 190V270 10SM FEW220 OVC250 14/04 A3012 RMK AO2 SLP201 T01440044
KMDT 242056Z VRB04KT 10SM OVC250 14/04 A3013 RMK AO2 SLP206 T01390044 56039
KMDT 241956Z 24010G16KT 10SM FEW075 OVC250 13/04 A3016 RMK AO2 SLP216 T01280044
KMDT 241856Z VRB06KT 10SM FEW070 OVC240 12/04 A3021 RMK AO2 SLP231 T01220039
KMDT 241756Z VRB06KT 10SM BKN080 11/03 A3025 RMK AO2 SLP245 60001 T01060033 10111 20028 58042
KMDT 241656Z 21007G17KT 180V250 10SM SCT070 08/02 A3029 RMK AO2 PRESFR SLP259 T00830017
KMDT 241556Z 19009G17KT 10SM SCT060 BKN075 06/M01 A3034 RMK AO2 SLP276 T00561006
KMDT 241456Z 20008G18KT 10SM BKN050 OVC060 04/M02 A3037 RMK AO2 RAE02 SLP288 P0000 60001 T00441017 56011
KMDT 241356Z VRB05KT 10SM -RA BKN050 OVC060 04/M03 A3038 RMK AO2 SLP292 P0001 T00391033
KMDT 241256Z 17007KT 150V210 10SM -RA BKN080 OVC100 03/M04 A3039 RMK AO2 RAB54 PRESFR SLP294 P0000 T00331039
KMDT 241156Z 10004KT 10SM BKN100 OVC200 03/M05 A3041 RMK AO2 SLP299 T00331050 10033 20011 55005
KMDT 241056Z 14005KT 10SM OVC200 02/M06 A3039 RMK AO2 SLP295 T00221056
KMDT 240956Z 15006KT 10SM SCT220 OVC250 02/M06 A3040 RMK AO2 SLP299 T00171061
KMDT 240856Z 15006KT 10SM OVC250 02/M06 A3042 RMK AO2 SLP304 T00171056 56019
KMDT 240756Z 16007KT 10SM OVC250 02/M06 A3044 RMK AO2 SLP312 T00221056
KMDT 240656Z 16006KT 10SM BKN250 02/M05 A3045 RMK AO2 SLP315 T00221050
KMDT 240556Z 16006KT 10SM SCT250 02/M06 A3048 RMK AO2 SLP323 T00221056 10050 21006 56011
KMDT 240456Z 17007KT 10SM FEW250 02/M07 A3049 RMK AO2 SLP328 T00221067 400781056
KMDT 240356Z 16004KT 10SM FEW250 01/M06 A3049 RMK AO2 SLP328 T00061061
KMDT 240256Z 17005KT 10SM FEW250 02/M06 A3051 RMK AO2 SLP335 T00171061 51007
KMDT 240156Z 13005KT 10SM SCT250 01/M07 A3051 RMK AO2 SLP335 T00061067
KMDT 240056Z 00000KT 10SM SCT250 03/M04 A3049 RMK AO2 SLP330 T00331044
KMDT 232356Z 18004KT 10SM SCT250 05/M06 A3049 RMK AO2 SLP329 T00501056 10078 20044 55007
KMDT 232256Z 15003KT 10SM SCT250 06/M10 A3049 RMK AO2 SLP328 T00611100
KMDT 232156Z 14003KT 10SM SCT250 07/M11 A3049 RMK AO2 SLP329 T00721111
KMDT 232056Z 28006KT 10SM SCT250 07/M14 A3051 RMK AO2 SLP335 T00721144 56025
KMDT 231956Z 31007KT 270V340 10SM SCT250 07/M14 A3053 RMK AO2 SLP341 T00671144
KMDT 231856Z 32007KT 10SM SCT250 06/M14 A3055 RMK AO2 SLP350 T00561139
KMDT 231756Z 32006KT 10SM SCT250 04/M13 A3058 RMK AO2 SLP361 T00441133 10044 21028 58016
KMDT 231656Z 00000KT 10SM FEW250 03/M13 A3060 RMK AO2 SLP367 T00281133